Time;durP1;ratioP1;P1;durP2;ratioP2;P2;SDS_P1;SDS_P2;PMS_P1;PMS_P2;Temp;Humidity;BMP_temperature;BMP_pressure;BME280_temperature;BME280_humidity;BME280_pressure;Samples;Min_cycle;Max_cycle;Signal;HPM_P1;HPM_P2
2021/09/19 00:01:25;;;;;;;13.73;8.40;;;20.20;48.60;;;;;;5066362;28;20475;-89
2021/09/19 00:03:52;;;;;;;13.77;8.33;;;20.00;48.50;;;;;;5067345;28;20496;-89
2021/09/19 00:06:20;;;;;;;13.80;8.07;;;20.10;49.40;;;;;;5067835;28;20452;-89
2021/09/19 00:08:47;;;;;;;12.20;9.53;;;20.20;45.60;;;;;;5069033;28;20456;-88
2021/09/19 00:11:14;;;;;;;12.63;8.70;;;20.10;48.20;;;;;;5070341;28;20447;-89
2021/09/19 00:13:41;;;;;;;16.73;9.23;;;19.90;48.90;;;;;;5065692;28;20436;-89
2021/09/19 00:16:08;;;;;;;11.43;8.50;;;19.70;46.00;;;;;;5065251;28;20476;-90
2021/09/19 00:18:34;;;;;;;10.53;7.97;;;19.60;48.70;;;;;;5065093;28;20456;-89
2021/09/19 00:21:01;;;;;;;12.27;7.67;;;19.60;48.70;;;;;;5067042;28;20495;-89
2021/09/19 00:23:30;;;;;;;11.47;9.10;;;19.70;48.90;;;;;;5065974;28;20499;-89
2021/09/19 00:25:57;;;;;;;16.93;7.57;;;19.60;46.50;;;;;;5066317;28;20424;-89
2021/09/19 00:28:23;;;;;;;9.73;7.53;;;19.70;49.80;;;;;;5063253;28;20571;-89
2021/09/19 00:30:50;;;;;;;13.40;8.07;;;20.00;50.20;;;;;;5066473;28;20507;-89
2021/09/19 00:33:17;;;;;;;12.40;8.93;;;20.20;49.80;;;;;;5064444;28;21019;-89
2021/09/19 00:35:44;;;;;;;11.53;8.40;;;20.10;47.20;;;;;;5065790;28;20452;-89
2021/09/19 00:38:11;;;;;;;11.67;8.70;;;19.90;49.10;;;;;;5063631;28;20436;-89
2021/09/19 00:40:39;;;;;;;12.90;7.83;;;19.60;48.80;;;;;;5066797;28;20488;-89
2021/09/19 00:43:06;;;;;;;9.53;7.87;;;19.70;50.10;;;;;;5066459;28;20444;-89
2021/09/19 00:45:33;;;;;;;14.30;8.53;;;19.80;49.50;;;;;;5062219;28;20523;-90
2021/09/19 00:48:00;;;;;;;12.60;8.87;;;19.90;49.70;;;;;;5068026;28;20509;-89
2021/09/19 00:50:27;;;;;;;13.50;9.83;;;19.80;48.10;;;;;;5064690;28;20593;-88
2021/09/19 00:52:55;;;;;;;22.97;8.37;;;19.20;48.90;;;;;;5065367;28;20820;-89
2021/09/19 00:55:22;;;;;;;14.30;8.40;;;19.40;49.80;;;;;;5065165;28;20439;-89
2021/09/19 00:57:52;;;;;;;15.73;10.60;;;19.60;49.60;;;;;;5076778;28;20444;-84
2021/09/19 01:00:23;;;;;;;12.47;8.47;;;19.60;45.60;;;;;;5064187;28;20849;-90
2021/09/19 01:02:51;;;;;;;11.93;8.50;;;18.90;50.30;;;;;;5065422;28;20562;-90
2021/09/19 01:05:18;;;;;;;11.33;8.27;;;19.20;51.20;;;;;;5065673;28;20512;-89
2021/09/19 01:07:46;;;;;;;11.43;8.10;;;19.40;48.50;;;;;;5062733;28;20452;-89
2021/09/19 01:10:14;;;;;;;13.03;9.70;;;19.30;50.20;;;;;;5060948;28;20499;-89
2021/09/19 01:12:42;;;;;;;10.67;8.53;;;19.20;47.60;;;;;;5062150;28;20448;-89
2021/09/19 01:15:13;;;;;;;10.73;9.00;;;19.30;50.20;;;;;;5061610;28;20468;-89
2021/09/19 01:17:41;;;;;;;12.70;9.30;;;18.80;50.60;;;;;;5062060;28;20448;-89
2021/09/19 01:20:13;;;;;;;11.10;9.07;;;19.00;50.80;;;;;;5062985;28;20456;-89
2021/09/19 01:22:41;;;;;;;11.50;8.77;;;19.20;50.90;;;;;;5063079;28;20507;-89
2021/09/19 01:25:12;;;;;;;22.07;10.80;;;19.50;50.70;;;;;;5063818;28;20527;-89
2021/09/19 01:27:40;;;;;;;13.90;11.10;;;19.30;49.00;;;;;;5063660;28;20417;-89
2021/09/19 01:30:09;;;;;;;16.40;11.23;;;19.10;48.50;;;;;;5062140;28;20492;-89
2021/09/19 01:32:39;;;;;;;12.17;7.97;;;19.10;49.40;;;;;;5062976;28;20459;-89
2021/09/19 01:35:08;;;;;;;11.93;9.10;;;19.30;51.00;;;;;;5063204;28;20437;-89
2021/09/19 01:37:35;;;;;;;9.13;7.37;;;19.40;50.40;;;;;;5061881;28;20452;-89
2021/09/19 01:40:02;;;;;;;16.40;11.10;;;19.60;50.60;;;;;;5063440;28;20460;-90
2021/09/19 01:42:31;;;;;;;14.77;11.20;;;19.20;47.10;;;;;;5063253;28;20444;-89
2021/09/19 01:44:58;;;;;;;14.60;9.87;;;18.60;48.90;;;;;;5063765;28;20554;-88
2021/09/19 01:47:24;;;;;;;11.97;9.13;;;18.90;51.50;;;;;;5061486;28;20957;-89
2021/09/19 01:49:52;;;;;;;12.60;8.47;;;19.10;49.20;;;;;;5063048;28;20495;-88
2021/09/19 01:52:21;;;;;;;13.53;10.57;;;18.50;50.30;;;;;;5065710;28;20535;-89
2021/09/19 01:54:48;;;;;;;15.13;11.20;;;18.70;50.50;;;;;;5063365;28;20444;-88
2021/09/19 01:57:19;;;;;;;9.60;7.50;;;19.10;50.80;;;;;;5062374;28;20455;-88
2021/09/19 01:59:49;;;;;;;21.57;14.43;;;19.20;50.00;;;;;;5059771;28;20534;-89
2021/09/19 02:02:16;;;;;;;12.77;10.37;;;19.30;48.70;;;;;;5064808;28;20445;-89
2021/09/19 02:04:43;;;;;;;18.90;11.03;;;19.00;47.90;;;;;;5063847;28;20518;-89
2021/09/19 02:07:10;;;;;;;15.50;9.60;;;18.70;49.70;;;;;;5063987;28;20429;-88
2021/09/19 02:09:37;;;;;;;12.10;9.70;;;18.80;51.00;;;;;;5061135;28;20492;-88
2021/09/19 02:12:05;;;;;;;13.73;8.30;;;19.10;50.80;;;;;;5057900;28;20507;-89
2021/09/19 02:14:33;;;;;;;15.33;9.70;;;19.30;50.60;;;;;;5062795;28;20440;-88
2021/09/19 02:17:02;;;;;;;12.13;9.13;;;19.20;50.80;;;;;;5061248;28;20444;-88
2021/09/19 02:19:29;;;;;;;12.47;10.00;;;19.30;49.90;;;;;;5062756;28;20452;-88
2021/09/19 02:21:56;;;;;;;12.37;8.90;;;19.20;49.70;;;;;;5061544;28;20447;-89
2021/09/19 02:24:22;;;;;;;8.97;7.17;;;19.30;49.90;;;;;;5057523;28;20892;-89
2021/09/19 02:26:49;;;;;;;14.00;9.67;;;19.50;51.20;;;;;;5055026;28;20498;-88
2021/09/19 02:29:16;;;;;;;13.00;9.60;;;19.10;50.10;;;;;;5054365;28;20547;-89
2021/09/19 02:31:43;;;;;;;18.47;11.60;;;19.00;49.40;;;;;;5054400;28;20518;-88
2021/09/19 02:34:12;;;;;;;13.47;10.63;;;18.60;47.80;;;;;;5053544;28;20444;-89
2021/09/19 02:36:40;;;;;;;13.07;9.47;;;18.00;48.60;;;;;;5053849;28;20481;-89
2021/09/19 02:39:08;;;;;;;9.93;7.53;;;17.80;50.30;;;;;;5056243;28;20472;-89
2021/09/19 02:41:35;;;;;;;10.80;7.87;;;18.40;52.30;;;;;;5054015;28;20448;-89
2021/09/19 02:44:03;;;;;;;11.60;8.53;;;18.90;52.00;;;;;;5053998;28;20448;-88
2021/09/19 02:46:30;;;;;;;10.53;7.90;;;19.10;50.80;;;;;;5053519;28;20433;-89
2021/09/19 02:48:57;;;;;;;10.77;8.33;;;19.30;51.10;;;;;;5052942;28;20547;-88
2021/09/19 02:51:25;;;;;;;27.43;12.73;;;19.40;51.10;;;;;;5053023;28;20906;-89
2021/09/19 02:53:52;;;;;;;23.60;13.60;;;19.20;47.80;;;;;;5053088;28;20570;-89
2021/09/19 02:56:19;;;;;;;13.40;9.57;;;19.20;50.80;;;;;;5053933;28;20448;-89
2021/09/19 02:58:46;;;;;;;16.20;9.03;;;19.30;49.30;;;;;;5052859;28;20499;-89
2021/09/19 03:01:13;;;;;;;12.27;9.73;;;19.20;49.90;;;;;;5053532;28;20486;-88
2021/09/19 03:03:40;;;;;;;12.80;9.70;;;18.80;48.60;;;;;;5053729;28;20988;-89
2021/09/19 03:06:07;;;;;;;12.87;9.00;;;18.60;47.50;;;;;;5053937;28;20475;-89
2021/09/19 03:08:35;;;;;;;12.03;9.00;;;18.50;48.80;;;;;;5053790;28;20429;-88
2021/09/19 03:11:02;;;;;;;18.80;11.20;;;18.50;51.50;;;;;;5053626;28;20529;-88
2021/09/19 03:13:29;;;;;;;18.13;11.73;;;17.90;46.40;;;;;;5053762;28;20878;-88
2021/09/19 03:15:56;;;;;;;13.03;9.70;;;17.80;48.00;;;;;;5053719;28;20470;-88
2021/09/19 03:18:23;;;;;;;12.90;9.37;;;17.70;52.00;;;;;;5053444;28;20444;-88
2021/09/19 03:20:49;;;;;;;13.60;10.20;;;18.20;52.60;;;;;;5053592;28;20550;-88
2021/09/19 03:23:16;;;;;;;13.10;9.50;;;18.40;51.80;;;;;;5058884;28;20455;-87
2021/09/19 03:25:45;;;;;;;14.30;10.17;;;18.70;52.00;;;;;;5074787;28;20504;-88
2021/09/19 03:28:12;;;;;;;16.83;10.07;;;18.90;51.50;;;;;;5053315;28;20494;-89
2021/09/19 03:30:39;;;;;;;14.17;9.17;;;19.00;51.00;;;;;;5053262;28;20654;-89
2021/09/19 03:33:06;;;;;;;10.70;8.23;;;19.20;50.90;;;;;;5052691;28;20452;-88
2021/09/19 03:35:32;;;;;;;18.23;10.73;;;19.40;51.10;;;;;;5052917;28;20448;-88
2021/09/19 03:37:59;;;;;;;12.50;10.33;;;19.30;46.10;;;;;;5053385;28;20510;-88
2021/09/19 03:40:26;;;;;;;12.67;9.43;;;18.30;48.40;;;;;;5053468;28;20559;-88
2021/09/19 03:42:55;;;;;;;17.23;10.40;;;18.20;50.80;;;;;;5060163;28;20486;-88
2021/09/19 03:45:28;;;;;;;14.87;11.80;;;17.90;49.70;;;;;;5057323;28;20522;-88
2021/09/19 03:47:56;;;;;;;13.00;10.27;;;17.30;48.00;;;;;;5052939;28;20485;-88
2021/09/19 03:50:23;;;;;;;13.43;10.80;;;16.40;49.90;;;;;;5057868;28;20459;-88
2021/09/19 03:52:49;;;;;;;11.70;9.80;;;16.20;52.50;;;;;;5056643;28;20994;-88
2021/09/19 03:55:16;;;;;;;13.67;10.60;;;16.20;53.70;;;;;;5058109;28;20453;-88
2021/09/19 03:57:43;;;;;;;18.73;10.00;;;15.90;53.50;;;;;;5057710;28;20524;-88
2021/09/19 04:00:12;;;;;;;12.57;8.97;;;15.90;54.90;;;;;;5057264;28;20585;-88
2021/09/19 04:02:40;;;;;;;14.10;9.57;;;16.20;53.60;;;;;;5057391;28;20482;-89
2021/09/19 04:05:08;;;;;;;12.80;9.50;;;16.20;54.00;;;;;;5057332;28;21002;-88
2021/09/19 04:07:35;;;;;;;10.80;9.20;;;15.90;53.20;;;;;;5056856;28;20525;-87
2021/09/19 04:10:03;;;;;;;12.00;9.37;;;15.60;54.80;;;;;;5057006;28;20827;-88
2021/09/19 04:12:30;;;;;;;12.13;9.80;;;15.60;53.00;;;;;;5057036;28;20765;-88
2021/09/19 04:14:57;;;;;;;13.83;9.40;;;16.20;53.50;;;;;;5057128;28;20444;-88
2021/09/19 04:17:25;;;;;;;12.93;8.93;;;16.60;55.50;;;;;;5057346;28;20529;-89
2021/09/19 04:19:52;;;;;;;12.40;9.47;;;17.30;54.40;;;;;;5055752;28;20467;-89
2021/09/19 04:22:20;;;;;;;9.83;8.60;;;17.70;53.10;;;;;;5057593;28;20525;-88
2021/09/19 04:24:47;;;;;;;9.33;7.57;;;18.00;53.40;;;;;;5059471;28;20476;-88
2021/09/19 04:27:14;;;;;;;11.43;9.63;;;18.30;53.50;;;;;;5060504;28;20520;-88
2021/09/19 04:29:41;;;;;;;12.60;9.60;;;17.70;48.10;;;;;;5056782;28;20507;-88
2021/09/19 04:32:08;;;;;;;11.33;8.43;;;17.20;49.90;;;;;;5056351;28;20474;-88
2021/09/19 04:34:36;;;;;;;11.87;8.23;;;17.00;53.10;;;;;;5060595;28;20497;-88
2021/09/19 04:37:03;;;;;;;11.00;8.63;;;17.10;52.30;;;;;;5058126;28;20532;-88
2021/09/19 04:39:30;;;;;;;13.83;9.93;;;17.10;52.30;;;;;;5056704;28;20468;-88
2021/09/19 04:41:57;;;;;;;12.90;10.20;;;17.00;52.60;;;;;;5056276;28;20876;-88
2021/09/19 04:44:24;;;;;;;12.07;9.63;;;16.60;50.70;;;;;;5056752;28;20602;-88
2021/09/19 04:46:51;;;;;;;15.80;11.00;;;16.20;49.80;;;;;;5055680;28;20544;-87
2021/09/19 04:49:18;;;;;;;25.00;11.73;;;15.40;51.50;;;;;;5055512;28;20537;-88
2021/09/19 04:51:46;;;;;;;15.60;11.80;;;15.20;52.10;;;;;;5055640;28;20792;-88
2021/09/19 04:54:13;;;;;;;17.23;12.03;;;14.80;53.90;;;;;;5055474;28;20476;-88
2021/09/19 04:56:40;;;;;;;15.87;10.60;;;14.60;53.80;;;;;;5055867;28;20463;-87
2021/09/19 04:59:07;;;;;;;12.03;9.80;;;14.80;56.20;;;;;;5054671;28;20958;-88
2021/09/19 05:01:34;;;;;;;19.87;11.60;;;15.50;56.30;;;;;;5054231;28;20456;-87
2021/09/19 05:04:01;;;;;;;15.17;11.40;;;15.70;53.80;;;;;;5054935;28;20426;-88
2021/09/19 05:06:28;;;;;;;12.83;10.47;;;16.00;54.20;;;;;;5055109;28;20516;-88
2021/09/19 05:08:56;;;;;;;11.37;9.07;;;16.30;55.30;;;;;;5055430;28;20469;-87
2021/09/19 05:11:23;;;;;;;15.33;11.13;;;16.80;55.80;;;;;;5054903;28;20551;-88
2021/09/19 05:13:50;;;;;;;14.80;11.50;;;17.30;53.60;;;;;;5054630;28;20877;-88
2021/09/19 05:16:17;;;;;;;17.50;11.80;;;16.90;52.90;;;;;;5055211;28;20455;-88
2021/09/19 05:18:45;;;;;;;14.60;9.80;;;16.50;50.90;;;;;;5055927;28;20794;-89
2021/09/19 05:21:11;;;;;;;15.47;10.93;;;15.90;51.20;;;;;;5074294;28;20447;-88
2021/09/19 05:23:38;;;;;;;11.97;8.30;;;15.90;52.90;;;;;;5055122;28;20458;-87
2021/09/19 05:26:07;;;;;;;12.57;8.80;;;16.20;54.70;;;;;;5054583;28;20513;-88
2021/09/19 05:28:34;;;;;;;11.80;9.20;;;16.90;55.80;;;;;;5054808;28;20539;-88
2021/09/19 05:31:00;;;;;;;14.40;10.50;;;17.20;55.80;;;;;;5054929;28;20577;-88
2021/09/19 05:33:27;;;;;;;10.00;7.27;;;17.50;53.00;;;;;;5055440;28;20618;-88
2021/09/19 05:35:54;;;;;;;11.77;8.00;;;17.90;53.80;;;;;;5056045;28;20479;-88
2021/09/19 05:38:21;;;;;;;10.07;7.83;;;18.40;52.30;;;;;;5054960;28;20534;-88
2021/09/19 05:40:48;;;;;;;8.73;7.20;;;19.10;48.40;;;;;;5055660;28;20456;-88
2021/09/19 05:43:17;;;;;;;9.93;7.07;;;19.00;47.20;;;;;;5055095;28;20482;-88
2021/09/19 05:45:44;;;;;;;10.23;7.83;;;19.00;46.30;;;;;;5054393;28;20518;-88
2021/09/19 05:48:11;;;;;;;7.03;6.33;;;18.90;45.60;;;;;;5054603;28;20918;-88
2021/09/19 05:50:37;;;;;;;9.10;6.37;;;19.30;46.00;;;;;;5054149;28;20511;-88
2021/09/19 05:53:04;;;;;;;8.27;5.90;;;19.90;43.00;;;;;;5055059;28;20484;-88
2021/09/19 05:55:31;;;;;;;7.97;6.33;;;20.40;41.90;;;;;;5054441;28;20451;-89
2021/09/19 05:57:58;;;;;;;7.57;6.20;;;20.80;41.10;;;;;;5055388;28;20482;-90
2021/09/19 06:00:27;;;;;;;7.57;6.43;;;21.40;40.30;;;;;;5055695;28;20472;-89
2021/09/19 06:02:53;;;;;;;16.50;6.80;;;21.00;39.10;;;;;;5054494;28;20937;-89
2021/09/19 06:05:20;;;;;;;7.40;6.37;;;20.80;39.40;;;;;;5055412;28;20506;-89
2021/09/19 06:07:47;;;;;;;7.80;6.20;;;20.60;39.40;;;;;;5055860;28;20487;-89
2021/09/19 06:10:15;;;;;;;14.80;6.00;;;20.60;39.60;;;;;;5056326;28;20472;-89
2021/09/19 06:12:42;;;;;;;7.57;6.20;;;20.40;37.90;;;;;;5055316;28;20440;-89
2021/09/19 06:15:10;;;;;;;9.00;5.93;;;21.00;39.90;;;;;;5055659;28;20436;-89
2021/09/19 06:17:38;;;;;;;6.30;5.70;;;21.60;38.60;;;;;;5055307;28;20475;-89
2021/09/19 06:20:06;;;;;;;7.87;6.27;;;22.30;37.30;;;;;;5055329;28;20472;-89
2021/09/19 06:22:33;;;;;;;8.37;6.33;;;22.70;36.50;;;;;;5055328;28;20716;-89
2021/09/19 06:25:00;;;;;;;8.33;6.13;;;23.00;36.10;;;;;;5055596;28;20448;-89
2021/09/19 06:27:27;;;;;;;7.87;6.10;;;23.30;35.40;;;;;;5054548;28;21006;-89
2021/09/19 06:29:54;;;;;;;8.60;6.13;;;23.70;34.20;;;;;;5055230;28;20518;-89
2021/09/19 06:32:21;;;;;;;7.37;5.63;;;23.70;33.90;;;;;;5054027;28;20493;-89
2021/09/19 06:34:49;;;;;;;6.43;5.80;;;23.60;34.80;;;;;;5054194;28;20448;-89
2021/09/19 06:37:16;;;;;;;6.60;5.67;;;24.20;33.40;;;;;;5055196;28;20476;-89
2021/09/19 06:39:44;;;;;;;6.80;5.77;;;24.10;33.50;;;;;;5054358;28;21081;-89
2021/09/19 06:42:11;;;;;;;8.67;6.27;;;24.10;33.00;;;;;;5053808;28;20452;-89
2021/09/19 06:44:38;;;;;;;6.63;5.70;;;24.10;33.50;;;;;;5057039;28;20456;-89
2021/09/19 06:47:05;;;;;;;7.80;6.10;;;24.20;33.60;;;;;;5056776;28;20511;-88
2021/09/19 06:49:32;;;;;;;8.10;5.40;;;24.70;33.10;;;;;;5054215;28;20500;-88
2021/09/19 06:52:00;;;;;;;8.27;6.20;;;24.40;31.90;;;;;;5054597;28;20498;-88
2021/09/19 06:54:27;;;;;;;8.83;4.93;;;24.30;33.50;;;;;;5059456;28;20617;-88
2021/09/19 06:56:54;;;;;;;6.13;5.60;;;24.70;35.30;;;;;;5057761;28;20502;-88
2021/09/19 06:59:21;;;;;;;5.90;5.40;;;24.30;34.80;;;;;;5055342;28;20924;-87
2021/09/19 07:01:55;;;;;;;6.97;6.33;;;24.00;33.40;;;;;;5058525;28;20475;-88
2021/09/19 07:04:22;;;;;;;8.87;6.53;;;23.30;35.10;;;;;;5058555;28;20450;-88
2021/09/19 07:06:49;;;;;;;9.83;6.67;;;22.60;36.10;;;;;;5053638;28;21027;-88
2021/09/19 07:09:18;;;;;;;10.83;6.97;;;22.50;37.30;;;;;;5052660;28;20981;-89
2021/09/19 07:11:44;;;;;;;12.17;7.63;;;22.30;37.60;;;;;;5053603;28;20444;-88
2021/09/19 07:14:11;;;;;;;9.50;8.30;;;22.20;37.60;;;;;;5053548;28;20433;-88
2021/09/19 07:16:38;;;;;;;11.60;7.53;;;22.20;37.60;;;;;;5064028;28;20448;-88
2021/09/19 07:19:05;;;;;;;8.70;7.20;;;22.30;38.60;;;;;;5066084;28;20464;-88
2021/09/19 07:21:32;;;;;;;8.60;7.50;;;22.40;37.60;;;;;;5069757;28;20469;-88
2021/09/19 07:23:59;;;;;;;8.03;7.00;;;22.60;36.90;;;;;;5065443;28;20464;-88
2021/09/19 07:26:28;;;;;;;8.70;6.93;;;23.30;35.40;;;;;;5059059;28;20479;-88
2021/09/19 07:28:55;;;;;;;10.53;6.87;;;23.90;34.30;;;;;;5058597;28;20579;-89
2021/09/19 07:31:22;;;;;;;8.43;6.80;;;24.50;34.80;;;;;;5059749;28;20539;-89
2021/09/19 07:33:51;;;;;;;7.80;5.70;;;25.10;33.90;;;;;;5059641;28;20989;-88
2021/09/19 07:36:24;;;;;;;9.70;7.20;;;25.40;33.00;;;;;;5059819;28;20471;-89
2021/09/19 07:38:51;;;;;;;22.03;7.23;;;26.00;30.80;;;;;;5059020;28;22289;-88
2021/09/19 07:41:18;;;;;;;11.83;7.10;;;25.70;31.20;;;;;;5057520;28;20495;-89
2021/09/19 07:43:47;;;;;;;10.63;7.50;;;25.90;31.00;;;;;;5070039;28;20436;-88
2021/09/19 07:46:16;;;;;;;6.47;5.20;;;25.90;31.10;;;;;;5070031;28;20476;-88
2021/09/19 07:48:43;;;;;;;9.80;7.67;;;25.80;33.30;;;;;;5061222;28;20448;-89
2021/09/19 07:51:11;;;;;;;7.93;7.10;;;26.40;30.80;;;;;;5059725;28;20514;-89
2021/09/19 07:53:38;;;;;;;12.83;7.20;;;25.90;31.50;;;;;;5058738;28;20879;-88
2021/09/19 07:56:05;;;;;;;8.17;6.63;;;26.20;30.60;;;;;;5058642;28;20828;-89
2021/09/19 07:58:32;;;;;;;8.20;6.93;;;25.60;31.00;;;;;;5058151;28;20436;-89
2021/09/19 08:01:01;;;;;;;10.40;7.60;;;25.30;31.30;;;;;;5057983;28;20467;-89
2021/09/19 08:03:28;;;;;;;11.70;6.93;;;25.50;32.00;;;;;;5057719;28;20436;-88
2021/09/19 08:05:55;;;;;;;10.03;6.97;;;26.10;30.60;;;;;;5061997;28;20439;-89
2021/09/19 08:08:21;;;;;;;9.80;8.10;;;25.90;30.60;;;;;;5061817;28;20937;-88
2021/09/19 08:10:48;;;;;;;9.80;7.40;;;25.40;32.30;;;;;;5057607;28;20537;-89
2021/09/19 08:13:16;;;;;;;12.90;8.10;;;26.10;31.90;;;;;;5056554;28;20469;-89
2021/09/19 08:15:43;;;;;;;10.70;6.37;;;26.40;30.10;;;;;;5061189;28;20498;-89
2021/09/19 08:18:11;;;;;;;11.23;7.83;;;25.90;31.90;;;;;;5060477;28;20503;-89
2021/09/19 08:20:38;;;;;;;8.83;7.03;;;26.40;31.50;;;;;;5060909;28;20476;-89
2021/09/19 08:23:05;;;;;;;9.60;7.60;;;26.70;30.80;;;;;;5063332;28;20589;-89
2021/09/19 08:25:32;;;;;;;12.20;7.43;;;27.00;30.30;;;;;;5064169;28;20498;-89
2021/09/19 08:27:59;;;;;;;8.73;7.23;;;27.00;30.40;;;;;;5061637;28;20530;-89
2021/09/19 08:30:26;;;;;;;10.43;7.53;;;26.40;31.20;;;;;;5055564;28;20555;-88
2021/09/19 08:32:53;;;;;;;9.17;7.40;;;25.70;32.00;;;;;;5056941;28;20438;-89
2021/09/19 08:35:21;;;;;;;8.30;7.17;;;25.10;33.10;;;;;;5056835;28;20452;-89
2021/09/19 08:37:48;;;;;;;10.77;7.60;;;25.10;34.40;;;;;;5065018;28;20440;-87
2021/09/19 08:40:15;;;;;;;10.60;7.90;;;24.70;34.10;;;;;;5075178;28;20506;-86
2021/09/19 08:42:43;;;;;;;9.23;7.57;;;25.20;34.10;;;;;;5075406;28;20445;-90
2021/09/19 08:45:12;;;;;;;12.27;8.83;;;24.70;34.60;;;;;;5058074;28;20478;-90
2021/09/19 08:47:38;;;;;;;22.07;7.70;;;23.90;35.50;;;;;;5056502;28;21017;-88
2021/09/19 08:50:08;;;;;;;9.80;6.53;;;23.60;36.30;;;;;;5056879;28;20453;-89
2021/09/19 08:52:37;;;;;;;11.87;8.50;;;23.40;37.50;;;;;;5056567;28;20475;-89
2021/09/19 08:55:05;;;;;;;8.30;6.50;;;23.60;36.90;;;;;;5056226;28;20449;-89
2021/09/19 08:57:32;;;;;;;19.03;7.60;;;23.50;36.90;;;;;;5055503;28;20449;-89
2021/09/19 09:00:05;;;;;;;11.47;8.40;;;23.70;37.10;;;;;;5055471;28;20981;-89
2021/09/19 09:02:46;;;;;;;14.63;9.07;;;23.80;36.00;;;;;;5055507;28;20445;-89
2021/09/19 09:05:20;;;;;;;14.50;9.17;;;23.20;37.10;;;;;;5056323;28;20475;-90
2021/09/19 09:07:51;;;;;;;13.70;9.03;;;23.10;38.10;;;;;;5055445;28;20506;-90
2021/09/19 09:10:30;;;;;;;11.43;8.90;;;23.00;38.30;;;;;;5054930;28;20456;-89
2021/09/19 09:13:00;;;;;;;12.00;8.17;;;23.40;37.70;;;;;;5055324;28;20408;-89
2021/09/19 09:15:33;;;;;;;10.57;8.60;;;23.30;38.20;;;;;;5056083;28;20435;-89
2021/09/19 09:18:04;;;;;;;10.07;7.90;;;23.70;37.30;;;;;;5056559;28;20432;-89
2021/09/19 09:20:47;;;;;;;12.53;9.30;;;23.50;39.10;;;;;;5056292;28;20559;-89
2021/09/19 09:23:23;;;;;;;17.00;8.80;;;23.70;36.60;;;;;;5056910;28;20432;-90
2021/09/19 09:26:12;;;;;;;12.33;8.57;;;23.60;37.40;;;;;;5056747;28;20523;-89
2021/09/19 09:28:44;;;;;;;12.20;8.60;;;24.00;37.00;;;;;;5057306;28;20459;-90
2021/09/19 09:31:12;;;;;;;15.67;8.70;;;23.80;37.70;;;;;;5056182;28;20525;-89
2021/09/19 09:33:39;;;;;;;11.03;9.50;;;23.10;40.10;;;;;;5056043;28;20480;-89
2021/09/19 09:36:08;;;;;;;16.30;9.23;;;22.50;39.90;;;;;;5056794;28;20523;-90
2021/09/19 09:38:38;;;;;;;12.27;9.50;;;22.60;40.40;;;;;;5062442;28;20517;-89
2021/09/19 09:41:06;;;;;;;14.80;9.97;;;23.00;40.00;;;;;;5066631;28;20479;-89
2021/09/19 09:43:33;;;;;;;8.63;7.37;;;23.20;39.30;;;;;;5064908;28;20454;-90
2021/09/19 09:46:11;;;;;;;6.83;5.63;;;23.40;39.10;;;;;;5065287;28;20460;-89
2021/09/19 09:48:41;;;;;;;10.57;7.23;;;23.90;39.10;;;;;;5063778;28;20409;-90
2021/09/19 09:51:22;;;;;;;6.93;4.90;;;24.30;37.30;;;;;;5064733;28;20487;-89
2021/09/19 09:54:00;;;;;;;11.73;8.90;;;24.80;37.90;;;;;;5062542;28;20431;-90
2021/09/19 09:56:27;;;;;;;12.93;9.70;;;24.70;35.90;;;;;;5059233;28;20743;-89
2021/09/19 09:58:56;;;;;;;11.33;8.00;;;24.30;37.30;;;;;;5055765;28;20579;-89
2021/09/19 10:01:23;;;;;;;12.50;9.30;;;24.10;37.80;;;;;;5055802;28;20504;-90
2021/09/19 10:03:50;;;;;;;15.40;9.93;;;24.30;36.30;;;;;;5056046;28;20476;-90
2021/09/19 10:06:17;;;;;;;11.90;9.10;;;24.00;36.80;;;;;;5057401;28;20932;-90
2021/09/19 10:08:44;;;;;;;15.40;9.83;;;23.70;37.20;;;;;;5057869;28;20510;-90
2021/09/19 10:11:13;;;;;;;15.40;8.77;;;23.30;37.70;;;;;;5065137;28;20445;-90
2021/09/19 10:13:44;;;;;;;13.60;9.50;;;23.50;38.10;;;;;;5063346;28;20457;-90
2021/09/19 10:16:15;;;;;;;20.50;9.67;;;23.60;37.50;;;;;;5062763;28;20459;-91
2021/09/19 10:18:48;;;;;;;8.90;7.27;;;23.50;38.00;;;;;;5059285;28;20743;-90
2021/09/19 10:21:18;;;;;;;13.77;9.30;;;23.70;38.20;;;;;;5060568;28;20512;-90
2021/09/19 10:23:45;;;;;;;11.57;8.27;;;23.60;38.00;;;;;;5059081;28;20451;-90
2021/09/19 10:26:22;;;;;;;12.30;9.77;;;23.40;39.20;;;;;;5057740;28;20986;-90
2021/09/19 10:28:52;;;;;;;12.27;9.50;;;23.50;39.10;;;;;;5067383;28;20420;-90
2021/09/19 10:31:31;;;;;;;13.60;9.73;;;22.70;39.70;;;;;;5060970;28;20436;-90
2021/09/19 10:34:01;;;;;;;19.63;9.50;;;22.40;40.70;;;;;;5057822;28;20424;-90
2021/09/19 10:36:35;;;;;;;14.70;9.13;;;22.80;39.80;;;;;;5063047;28;20482;-90
2021/09/19 10:39:31;;;;;;;11.47;8.43;;;23.30;40.20;;;;;;5060975;28;20464;-89
2021/09/19 10:42:21;;;;;;;9.70;6.60;;;23.30;38.70;;;;;;5037373;28;20456;-90
2021/09/19 10:45:00;;;;;;;13.33;8.30;;;23.00;40.00;;;;;;5062129;28;20952;-90
2021/09/19 10:47:33;;;;;;;13.20;8.87;;;23.60;39.10;;;;;;5060676;28;20464;-90
2021/09/19 10:50:21;;;;;;;14.70;7.80;;;23.80;39.00;;;;;;5063478;28;20460;-90
2021/09/19 10:52:50;;;;;;;6.70;5.70;;;23.80;38.10;;;;;;5061623;28;20448;-89
2021/09/19 10:55:26;;;;;;;11.83;9.10;;;23.70;39.00;;;;;;5062905;28;20435;-89
2021/09/19 10:58:06;;;;;;;14.80;9.13;;;23.70;39.10;;;;;;5063212;28;20534;-89
2021/09/19 11:00:34;;;;;;;10.03;7.40;;;23.70;38.80;;;;;;5060098;28;20516;-88
2021/09/19 11:03:04;;;;;;;13.83;7.90;;;23.50;39.60;;;;;;5065163;28;20930;-88
2021/09/19 11:05:33;;;;;;;14.77;9.07;;;23.60;39.40;;;;;;5061255;28;20436;-89
2021/09/19 11:08:27;;;;;;;14.73;8.67;;;23.40;39.10;;;;;;5062010;28;20538;-89
2021/09/19 11:11:18;;;;;;;9.93;7.00;;;23.00;40.40;;;;;;5065649;28;20464;-88
2021/09/19 11:13:53;;;;;;;10.50;8.10;;;23.40;39.80;;;;;;5063376;28;20859;-89
2021/09/19 11:16:29;;;;;;;10.03;7.73;;;23.10;40.10;;;;;;5062739;28;20431;-89
2021/09/19 11:18:58;;;;;;;10.10;7.97;;;23.20;40.00;;;;;;5062740;28;20456;-90
2021/09/19 11:21:51;;;;;;;16.83;8.83;;;23.30;40.00;;;;;;5064342;28;20436;-90
2021/09/19 11:24:24;;;;;;;10.77;7.30;;;23.00;39.90;;;;;;5053778;28;20463;-90
2021/09/19 11:26:55;;;;;;;10.63;7.90;;;23.10;40.10;;;;;;5064267;28;20435;-90
2021/09/19 11:29:26;;;;;;;11.23;7.90;;;23.20;39.60;;;;;;5062421;28;20510;-90
2021/09/19 11:31:55;;;;;;;20.67;9.40;;;23.50;40.20;;;;;;5061362;28;20429;-89
2021/09/19 11:34:24;;;;;;;8.40;6.67;;;23.50;39.00;;;;;;5055728;28;20433;-89
2021/09/19 11:36:53;;;;;;;11.60;8.50;;;23.60;39.50;;;;;;5065354;28;20448;-90
2021/09/19 11:39:20;;;;;;;9.00;7.37;;;23.80;39.60;;;;;;5059356;28;20487;-90
2021/09/19 11:41:48;;;;;;;34.13;17.00;;;24.00;38.70;;;;;;5063707;28;20428;-90
2021/09/19 11:44:17;;;;;;;10.20;7.00;;;24.30;37.90;;;;;;5062819;28;20500;-90
2021/09/19 11:46:47;;;;;;;18.73;7.17;;;23.90;36.50;;;;;;5062188;28;20486;-90
2021/09/19 11:49:14;;;;;;;10.57;8.17;;;22.90;39.00;;;;;;5062896;28;20563;-89
2021/09/19 11:51:43;;;;;;;9.37;8.10;;;22.80;39.70;;;;;;5062596;28;20467;-89
2021/09/19 11:54:13;;;;;;;9.20;7.53;;;23.60;38.90;;;;;;5062524;28;20468;-89
2021/09/19 11:56:43;;;;;;;9.73;7.53;;;23.70;38.10;;;;;;5060312;28;20435;-90
2021/09/19 11:59:14;;;;;;;11.10;8.30;;;23.40;38.40;;;;;;5062214;28;20474;-89
2021/09/19 12:01:42;;;;;;;12.37;7.03;;;22.90;39.20;;;;;;5067436;28;20455;-89
2021/09/19 12:04:12;;;;;;;9.70;6.50;;;23.00;39.60;;;;;;5064567;28;20466;-89
2021/09/19 12:06:41;;;;;;;10.83;7.57;;;23.90;38.20;;;;;;5062015;28;20482;-90
2021/09/19 12:09:13;;;;;;;8.83;7.10;;;24.30;36.90;;;;;;5060002;28;21077;-90
2021/09/19 12:11:42;;;;;;;9.13;6.93;;;24.30;36.60;;;;;;5060059;28;20435;-90
2021/09/19 12:14:19;;;;;;;9.07;6.70;;;24.00;36.70;;;;;;5060691;28;20814;-89
2021/09/19 12:17:00;;;;;;;8.70;6.87;;;23.70;37.00;;;;;;5061754;28;20466;-89
2021/09/19 12:19:29;;;;;;;8.50;6.73;;;24.10;36.50;;;;;;5061945;28;20468;-90
2021/09/19 12:21:58;;;;;;;10.63;7.10;;;23.90;36.00;;;;;;5065011;28;20960;-90
2021/09/19 12:24:26;;;;;;;16.83;6.37;;;23.90;36.00;;;;;;5066034;28;20483;-89
2021/09/19 12:27:08;;;;;;;9.40;6.40;;;24.40;33.80;;;;;;5067214;28;20464;-91
2021/09/19 12:29:35;;;;;;;6.53;5.67;;;24.70;34.60;;;;;;5063617;28;20480;-90
2021/09/19 12:32:03;;;;;;;6.57;5.50;;;25.00;34.30;;;;;;5068771;28;20440;-91
2021/09/19 12:34:32;;;;;;;7.70;5.50;;;25.30;34.50;;;;;;5065592;28;20439;-89
2021/09/19 12:36:59;;;;;;;7.60;6.27;;;25.50;33.70;;;;;;5064425;28;20468;-91
2021/09/19 12:39:28;;;;;;;9.03;6.07;;;25.50;34.00;;;;;;5065700;28;20529;-91
2021/09/19 12:41:58;;;;;;;9.60;5.80;;;25.10;34.40;;;;;;5066088;28;20440;-92
2021/09/19 12:44:28;;;;;;;6.40;5.40;;;24.80;34.50;;;;;;5066381;28;20486;-91
2021/09/19 12:46:58;;;;;;;6.53;6.10;;;24.70;34.00;;;;;;5072993;28;20502;-90